Lucky, Pennsylvania
Current Conditions -  °F | °C
As of 3:53 AM on Sunday 23 Nov 2014 (Local Time) from KTHV Reporting Station
Clear Clear  
Wind Chill: 43°   Ceiling: Unl
Heat Index: 43°   Visibility: 10mi
Dew Point: 19°   Wind: 0mph
Humidity: 38%   Direction: NA
Pressure: 30.16"   Gusts: NA
Location:  39.8329°N, 76.5923°W
Report Text: KTHV 230853Z AUTO 00000KT 10SM CLR 06/M07 A3016 RMK AO2 SLP217 T00611072 58007
Loading
Personal Weather Stations






























Interactive Weather Map New forecast layout! Learn more

10-Day Weather Forecast

Advertisements
Track Severe Weather on mobile